sensor_id;sensor_type;location;lat;lon;timestamp;temperature;humidity
4306;DHT22;2166;49.926;8.608;2023-08-20T00:00:15;23.40;72.70
4306;DHT22;2166;49.926;8.608;2023-08-20T00:02:47;23.40;72.70
4306;DHT22;2166;49.926;8.608;2023-08-20T00:05:19;23.40;72.70
4306;DHT22;2166;49.926;8.608;2023-08-20T00:07:48;23.40;72.70
4306;DHT22;2166;49.926;8.608;2023-08-20T00:10:17;23.40;72.70
4306;DHT22;2166;49.926;8.608;2023-08-20T00:12:45;23.40;72.70
4306;DHT22;2166;49.926;8.608;2023-08-20T00:15:14;23.40;72.70
4306;DHT22;2166;49.926;8.608;2023-08-20T00:17:42;23.40;72.70
4306;DHT22;2166;49.926;8.608;2023-08-20T00:20:14;23.50;72.60
4306;DHT22;2166;49.926;8.608;2023-08-20T00:22:44;23.40;72.70
4306;DHT22;2166;49.926;8.608;2023-08-20T00:25:13;23.40;72.60
4306;DHT22;2166;49.926;8.608;2023-08-20T00:27:42;23.40;72.70
4306;DHT22;2166;49.926;8.608;2023-08-20T00:30:11;23.30;72.60
4306;DHT22;2166;49.926;8.608;2023-08-20T00:32:40;23.20;72.60
4306;DHT22;2166;49.926;8.608;2023-08-20T00:35:09;23.10;72.60
4306;DHT22;2166;49.926;8.608;2023-08-20T00:37:39;23.10;72.60
4306;DHT22;2166;49.926;8.608;2023-08-20T00:40:10;23.10;72.60
4306;DHT22;2166;49.926;8.608;2023-08-20T00:42:39;23.10;72.60
4306;DHT22;2166;49.926;8.608;2023-08-20T00:45:08;23.10;72.60
4306;DHT22;2166;49.926;8.608;2023-08-20T00:47:37;23.00;72.60
4306;DHT22;2166;49.926;8.608;2023-08-20T00:50:06;23.00;72.60
4306;DHT22;2166;49.926;8.608;2023-08-20T00:52:37;22.90;72.60
4306;DHT22;2166;49.926;8.608;2023-08-20T00:55:08;22.80;72.70
4306;DHT22;2166;49.926;8.608;2023-08-20T00:57:38;22.80;72.80
4306;DHT22;2166;49.926;8.608;2023-08-20T01:00:08;22.80;72.80
4306;DHT22;2166;49.926;8.608;2023-08-20T01:02:38;22.70;72.70
4306;DHT22;2166;49.926;8.608;2023-08-20T01:05:09;22.70;72.70
4306;DHT22;2166;49.926;8.608;2023-08-20T01:07:53;22.50;72.70
4306;DHT22;2166;49.926;8.608;2023-08-20T01:10:33;22.40;72.70
4306;DHT22;2166;49.926;8.608;2023-08-20T01:13:03;22.20;72.80
4306;DHT22;2166;49.926;8.608;2023-08-20T01:15:32;22.00;73.00
4306;DHT22;2166;49.926;8.608;2023-08-20T01:18:01;21.80;73.10
4306;DHT22;2166;49.926;8.608;2023-08-20T01:20:32;21.70;73.30
4306;DHT22;2166;49.926;8.608;2023-08-20T01:23:35;21.60;73.40
4306;DHT22;2166;49.926;8.608;2023-08-20T01:26:25;21.40;73.40
4306;DHT22;2166;49.926;8.608;2023-08-20T01:29:00;21.30;73.50
4306;DHT22;2166;49.926;8.608;2023-08-20T01:31:28;21.30;73.50
4306;DHT22;2166;49.926;8.608;2023-08-20T01:33:57;21.30;73.50
4306;DHT22;2166;49.926;8.608;2023-08-20T01:36:27;21.30;73.60
4306;DHT22;2166;49.926;8.608;2023-08-20T01:38:55;21.30;73.60
4306;DHT22;2166;49.926;8.608;2023-08-20T01:41:24;21.30;73.40
4306;DHT22;2166;49.926;8.608;2023-08-20T01:43:53;21.30;73.30
4306;DHT22;2166;49.926;8.608;2023-08-20T01:46:23;21.20;73.20
4306;DHT22;2166;49.926;8.608;2023-08-20T01:48:51;21.20;73.20
4306;DHT22;2166;49.926;8.608;2023-08-20T01:51:19;21.20;73.10
4306;DHT22;2166;49.926;8.608;2023-08-20T01:53:48;21.20;73.00
4306;DHT22;2166;49.926;8.608;2023-08-20T01:56:16;21.20;73.00
4306;DHT22;2166;49.926;8.608;2023-08-20T01:58:45;21.10;73.00
4306;DHT22;2166;49.926;8.608;2023-08-20T02:01:14;21.20;73.00
4306;DHT22;2166;49.926;8.608;2023-08-20T02:03:44;21.20;73.00
4306;DHT22;2166;49.926;8.608;2023-08-20T02:06:12;21.20;72.90
4306;DHT22;2166;49.926;8.608;2023-08-20T02:08:44;21.10;72.90
4306;DHT22;2166;49.926;8.608;2023-08-20T02:11:18;21.10;72.90
4306;DHT22;2166;49.926;8.608;2023-08-20T02:13:46;21.10;72.90
4306;DHT22;2166;49.926;8.608;2023-08-20T02:16:14;21.00;73.00
4306;DHT22;2166;49.926;8.608;2023-08-20T02:18:45;21.00;73.00
4306;DHT22;2166;49.926;8.608;2023-08-20T02:21:14;21.00;73.00
4306;DHT22;2166;49.926;8.608;2023-08-20T02:23:42;21.00;73.00
4306;DHT22;2166;49.926;8.608;2023-08-20T02:26:11;21.00;73.00
4306;DHT22;2166;49.926;8.608;2023-08-20T02:28:39;20.90;73.00
4306;DHT22;2166;49.926;8.608;2023-08-20T02:31:07;20.90;73.00
4306;DHT22;2166;49.926;8.608;2023-08-20T02:33:35;20.90;73.20
4306;DHT22;2166;49.926;8.608;2023-08-20T02:36:07;20.90;73.00
4306;DHT22;2166;49.926;8.608;2023-08-20T02:38:35;21.00;73.00
4306;DHT22;2166;49.926;8.608;2023-08-20T02:41:03;20.90;73.00
4306;DHT22;2166;49.926;8.608;2023-08-20T02:43:32;20.90;73.00
4306;DHT22;2166;49.926;8.608;2023-08-20T02:46:00;20.90;73.00
4306;DHT22;2166;49.926;8.608;2023-08-20T02:48:29;20.90;73.00
4306;DHT22;2166;49.926;8.608;2023-08-20T02:50:59;20.90;73.00
4306;DHT22;2166;49.926;8.608;2023-08-20T02:53:29;20.90;73.00
4306;DHT22;2166;49.926;8.608;2023-08-20T02:55:57;20.90;73.00
4306;DHT22;2166;49.926;8.608;2023-08-20T02:58:26;20.80;73.00
4306;DHT22;2166;49.926;8.608;2023-08-20T03:00:54;20.70;73.10
4306;DHT22;2166;49.926;8.608;2023-08-20T03:03:23;20.70;73.10
4306;DHT22;2166;49.926;8.608;2023-08-20T03:05:53;20.60;73.20
4306;DHT22;2166;49.926;8.608;2023-08-20T03:08:21;20.60;73.20
4306;DHT22;2166;49.926;8.608;2023-08-20T03:10:51;20.50;73.20
4306;DHT22;2166;49.926;8.608;2023-08-20T03:13:20;20.60;73.30
4306;DHT22;2166;49.926;8.608;2023-08-20T03:15:48;20.50;73.20
4306;DHT22;2166;49.926;8.608;2023-08-20T03:18:16;20.50;73.30
4306;DHT22;2166;49.926;8.608;2023-08-20T03:20:45;20.50;73.30
4306;DHT22;2166;49.926;8.608;2023-08-20T03:23:13;20.40;73.30
4306;DHT22;2166;49.926;8.608;2023-08-20T03:25:41;20.40;73.40
4306;DHT22;2166;49.926;8.608;2023-08-20T03:28:11;20.40;73.50
4306;DHT22;2166;49.926;8.608;2023-08-20T03:30:39;20.40;73.50
4306;DHT22;2166;49.926;8.608;2023-08-20T03:33:08;20.40;73.50
4306;DHT22;2166;49.926;8.608;2023-08-20T03:35:37;20.30;73.40
4306;DHT22;2166;49.926;8.608;2023-08-20T03:38:06;20.30;73.40
4306;DHT22;2166;49.926;8.608;2023-08-20T03:40:34;20.20;73.50
4306;DHT22;2166;49.926;8.608;2023-08-20T03:43:03;20.20;73.50
4306;DHT22;2166;49.926;8.608;2023-08-20T03:45:33;20.20;73.60
4306;DHT22;2166;49.926;8.608;2023-08-20T03:48:01;20.20;73.60
4306;DHT22;2166;49.926;8.608;2023-08-20T03:50:30;20.20;73.60
4306;DHT22;2166;49.926;8.608;2023-08-20T03:52:58;20.10;73.60
4306;DHT22;2166;49.926;8.608;2023-08-20T03:55:27;20.10;73.70
4306;DHT22;2166;49.926;8.608;2023-08-20T03:57:56;20.00;73.70
4306;DHT22;2166;49.926;8.608;2023-08-20T04:00:24;20.00;73.80
4306;DHT22;2166;49.926;8.608;2023-08-20T04:02:54;20.00;73.90
4306;DHT22;2166;49.926;8.608;2023-08-20T04:05:23;20.00;73.80
4306;DHT22;2166;49.926;8.608;2023-08-20T04:07:51;20.00;73.70
4306;DHT22;2166;49.926;8.608;2023-08-20T04:10:20;20.00;73.70
4306;DHT22;2166;49.926;8.608;2023-08-20T04:12:49;20.10;73.80
4306;DHT22;2166;49.926;8.608;2023-08-20T04:15:17;20.10;73.70
4306;DHT22;2166;49.926;8.608;2023-08-20T04:17:45;20.10;73.80
4306;DHT22;2166;49.926;8.608;2023-08-20T04:20:17;20.10;73.80
4306;DHT22;2166;49.926;8.608;2023-08-20T04:22:46;20.20;73.70
4306;DHT22;2166;49.926;8.608;2023-08-20T04:25:16;20.20;73.70
4306;DHT22;2166;49.926;8.608;2023-08-20T04:27:44;20.20;73.70
4306;DHT22;2166;49.926;8.608;2023-08-20T04:30:13;20.20;73.70
4306;DHT22;2166;49.926;8.608;2023-08-20T04:32:42;20.20;73.70
4306;DHT22;2166;49.926;8.608;2023-08-20T04:35:10;20.30;73.60
4306;DHT22;2166;49.926;8.608;2023-08-20T04:37:41;20.30;73.50
4306;DHT22;2166;49.926;8.608;2023-08-20T04:40:10;20.40;73.50
4306;DHT22;2166;49.926;8.608;2023-08-20T04:42:42;20.50;73.50
4306;DHT22;2166;49.926;8.608;2023-08-20T04:45:12;20.60;73.50
4306;DHT22;2166;49.926;8.608;2023-08-20T04:47:40;20.80;73.50
4306;DHT22;2166;49.926;8.608;2023-08-20T04:50:09;21.00;73.40
4306;DHT22;2166;49.926;8.608;2023-08-20T04:52:38;21.20;73.10
4306;DHT22;2166;49.926;8.608;2023-08-20T04:55:09;21.50;72.70
4306;DHT22;2166;49.926;8.608;2023-08-20T04:57:38;21.80;72.50
4306;DHT22;2166;49.926;8.608;2023-08-20T05:00:08;22.20;72.40
4306;DHT22;2166;49.926;8.608;2023-08-20T05:02:43;22.60;72.30
4306;DHT22;2166;49.926;8.608;2023-08-20T05:05:14;23.10;72.40
4306;DHT22;2166;49.926;8.608;2023-08-20T05:07:43;23.60;72.60
4306;DHT22;2166;49.926;8.608;2023-08-20T05:10:14;24.10;72.30
4306;DHT22;2166;49.926;8.608;2023-08-20T05:12:42;24.50;72.70
4306;DHT22;2166;49.926;8.608;2023-08-20T05:15:11;24.90;72.60
4306;DHT22;2166;49.926;8.608;2023-08-20T05:17:39;25.40;72.60
4306;DHT22;2166;49.926;8.608;2023-08-20T05:20:08;25.80;72.60
4306;DHT22;2166;49.926;8.608;2023-08-20T05:22:37;26.20;72.60
4306;DHT22;2166;49.926;8.608;2023-08-20T05:25:06;26.60;72.80
4306;DHT22;2166;49.926;8.608;2023-08-20T05:27:36;26.90;72.50
4306;DHT22;2166;49.926;8.608;2023-08-20T05:30:06;27.00;72.40
4306;DHT22;2166;49.926;8.608;2023-08-20T05:32:35;26.70;72.40
4306;DHT22;2166;49.926;8.608;2023-08-20T05:35:05;26.40;72.40
4306;DHT22;2166;49.926;8.608;2023-08-20T05:37:34;26.60;72.40
4306;DHT22;2166;49.926;8.608;2023-08-20T05:40:02;27.10;72.30
4306;DHT22;2166;49.926;8.608;2023-08-20T05:42:37;27.80;72.10
4306;DHT22;2166;49.926;8.608;2023-08-20T05:45:07;28.50;71.60
4306;DHT22;2166;49.926;8.608;2023-08-20T05:47:36;29.30;70.80
4306;DHT22;2166;49.926;8.608;2023-08-20T05:50:07;29.70;69.60
4306;DHT22;2166;49.926;8.608;2023-08-20T05:52:35;30.10;69.50
4306;DHT22;2166;49.926;8.608;2023-08-20T05:55:05;30.60;69.40
4306;DHT22;2166;49.926;8.608;2023-08-20T05:57:34;31.10;68.50
4306;DHT22;2166;49.926;8.608;2023-08-20T06:00:07;31.30;68.50
4306;DHT22;2166;49.926;8.608;2023-08-20T06:02:45;31.30;69.20
4306;DHT22;2166;49.926;8.608;2023-08-20T06:05:16;31.70;68.20
4306;DHT22;2166;49.926;8.608;2023-08-20T06:07:44;32.10;67.80
4306;DHT22;2166;49.926;8.608;2023-08-20T06:10:13;32.60;66.20
4306;DHT22;2166;49.926;8.608;2023-08-20T06:12:42;32.90;65.30
4306;DHT22;2166;49.926;8.608;2023-08-20T06:15:11;33.40;64.00
4306;DHT22;2166;49.926;8.608;2023-08-20T06:17:40;33.80;62.70
4306;DHT22;2166;49.926;8.608;2023-08-20T06:20:09;33.80;62.20
4306;DHT22;2166;49.926;8.608;2023-08-20T06:22:38;33.80;62.00
4306;DHT22;2166;49.926;8.608;2023-08-20T06:25:07;33.20;63.30
4306;DHT22;2166;49.926;8.608;2023-08-20T06:27:36;33.40;63.00
4306;DHT22;2166;49.926;8.608;2023-08-20T06:30:05;34.00;62.10
4306;DHT22;2166;49.926;8.608;2023-08-20T06:32:35;34.60;60.30
4306;DHT22;2166;49.926;8.608;2023-08-20T06:35:05;35.10;59.10
4306;DHT22;2166;49.926;8.608;2023-08-20T06:37:33;35.30;58.30
4306;DHT22;2166;49.926;8.608;2023-08-20T06:40:02;35.50;57.80
4306;DHT22;2166;49.926;8.608;2023-08-20T06:42:30;35.70;57.60
4306;DHT22;2166;49.926;8.608;2023-08-20T06:44:59;35.60;57.20
4306;DHT22;2166;49.926;8.608;2023-08-20T06:47:27;35.60;57.60
4306;DHT22;2166;49.926;8.608;2023-08-20T06:49:57;36.00;57.10
4306;DHT22;2166;49.926;8.608;2023-08-20T06:52:25;36.60;55.90
4306;DHT22;2166;49.926;8.608;2023-08-20T06:54:54;36.90;55.20
4306;DHT22;2166;49.926;8.608;2023-08-20T06:57:23;37.50;54.20
4306;DHT22;2166;49.926;8.608;2023-08-20T06:59:51;37.90;53.30
4306;DHT22;2166;49.926;8.608;2023-08-20T07:02:19;38.40;52.40
4306;DHT22;2166;49.926;8.608;2023-08-20T07:04:47;38.90;51.30
4306;DHT22;2166;49.926;8.608;2023-08-20T07:07:17;39.50;50.30
4306;DHT22;2166;49.926;8.608;2023-08-20T07:09:45;39.50;50.30
4306;DHT22;2166;49.926;8.608;2023-08-20T07:12:14;39.70;49.60
4306;DHT22;2166;49.926;8.608;2023-08-20T07:14:43;39.80;49.50
4306;DHT22;2166;49.926;8.608;2023-08-20T07:17:11;39.90;49.10
4306;DHT22;2166;49.926;8.608;2023-08-20T07:19:41;39.40;50.00
4306;DHT22;2166;49.926;8.608;2023-08-20T07:22:10;39.20;50.50
4306;DHT22;2166;49.926;8.608;2023-08-20T07:24:40;39.80;49.70
4306;DHT22;2166;49.926;8.608;2023-08-20T07:27:08;39.90;49.00
4306;DHT22;2166;49.926;8.608;2023-08-20T07:29:40;39.70;49.30
4306;DHT22;2166;49.926;8.608;2023-08-20T07:32:08;38.60;50.70
4306;DHT22;2166;49.926;8.608;2023-08-20T07:34:38;38.30;51.90
4306;DHT22;2166;49.926;8.608;2023-08-20T07:37:06;38.90;51.00
4306;DHT22;2166;49.926;8.608;2023-08-20T07:39:36;39.70;49.60
4306;DHT22;2166;49.926;8.608;2023-08-20T07:42:06;40.60;48.30
4306;DHT22;2166;49.926;8.608;2023-08-20T07:44:35;41.60;46.70
4306;DHT22;2166;49.926;8.608;2023-08-20T07:47:05;42.30;45.70
4306;DHT22;2166;49.926;8.608;2023-08-20T07:49:33;42.50;45.00
4306;DHT22;2166;49.926;8.608;2023-08-20T07:52:01;42.90;44.70
4306;DHT22;2166;49.926;8.608;2023-08-20T07:54:29;43.20;43.70
4306;DHT22;2166;49.926;8.608;2023-08-20T07:56:58;42.50;44.20
4306;DHT22;2166;49.926;8.608;2023-08-20T07:59:28;42.20;44.40
4306;DHT22;2166;49.926;8.608;2023-08-20T08:01:57;42.50;44.30
4306;DHT22;2166;49.926;8.608;2023-08-20T08:04:25;43.00;43.60
4306;DHT22;2166;49.926;8.608;2023-08-20T08:06:54;43.00;43.30
4306;DHT22;2166;49.926;8.608;2023-08-20T08:09:28;43.30;43.10
4306;DHT22;2166;49.926;8.608;2023-08-20T08:11:57;43.80;42.80
4306;DHT22;2166;49.926;8.608;2023-08-20T08:14:28;44.10;41.70
4306;DHT22;2166;49.926;8.608;2023-08-20T08:16:57;44.10;42.20
4306;DHT22;2166;49.926;8.608;2023-08-20T08:19:25;43.90;42.70
4306;DHT22;2166;49.926;8.608;2023-08-20T08:21:54;44.20;42.10
4306;DHT22;2166;49.926;8.608;2023-08-20T08:24:22;44.80;41.20
4306;DHT22;2166;49.926;8.608;2023-08-20T08:26:51;45.00;40.90
4306;DHT22;2166;49.926;8.608;2023-08-20T08:29:19;44.80;41.50
4306;DHT22;2166;49.926;8.608;2023-08-20T08:31:50;45.30;41.10
4306;DHT22;2166;49.926;8.608;2023-08-20T08:34:18;45.70;40.50
4306;DHT22;2166;49.926;8.608;2023-08-20T08:36:47;46.40;39.50
4306;DHT22;2166;49.926;8.608;2023-08-20T08:39:15;46.60;39.30
4306;DHT22;2166;49.926;8.608;2023-08-20T08:41:46;46.80;39.00
4306;DHT22;2166;49.926;8.608;2023-08-20T08:44:17;47.10;38.00
4306;DHT22;2166;49.926;8.608;2023-08-20T08:46:50;47.50;38.00
4306;DHT22;2166;49.926;8.608;2023-08-20T08:49:19;47.70;37.30
4306;DHT22;2166;49.926;8.608;2023-08-20T08:51:47;47.80;37.30
4306;DHT22;2166;49.926;8.608;2023-08-20T08:54:15;48.50;36.80
4306;DHT22;2166;49.926;8.608;2023-08-20T08:56:45;48.90;36.20
4306;DHT22;2166;49.926;8.608;2023-08-20T08:59:14;49.30;36.20
4306;DHT22;2166;49.926;8.608;2023-08-20T09:01:43;49.30;36.10
4306;DHT22;2166;49.926;8.608;2023-08-20T09:04:13;49.60;35.60
4306;DHT22;2166;49.926;8.608;2023-08-20T09:06:45;49.80;35.50
4306;DHT22;2166;49.926;8.608;2023-08-20T09:09:14;49.60;35.40
4306;DHT22;2166;49.926;8.608;2023-08-20T09:11:51;49.50;35.40
4306;DHT22;2166;49.926;8.608;2023-08-20T09:14:28;49.10;35.90
4306;DHT22;2166;49.926;8.608;2023-08-20T09:16:58;49.20;36.00
4306;DHT22;2166;49.926;8.608;2023-08-20T09:19:35;49.40;35.60
4306;DHT22;2166;49.926;8.608;2023-08-20T09:22:04;49.40;35.60
4306;DHT22;2166;49.926;8.608;2023-08-20T09:24:34;49.30;35.80
4306;DHT22;2166;49.926;8.608;2023-08-20T09:27:04;49.40;35.60
4306;DHT22;2166;49.926;8.608;2023-08-20T09:29:33;49.50;35.10
4306;DHT22;2166;49.926;8.608;2023-08-20T09:32:14;49.70;35.10
4306;DHT22;2166;49.926;8.608;2023-08-20T09:34:45;50.40;34.50
4306;DHT22;2166;49.926;8.608;2023-08-20T09:37:14;50.80;33.60
4306;DHT22;2166;49.926;8.608;2023-08-20T09:39:43;50.00;34.30
4306;DHT22;2166;49.926;8.608;2023-08-20T09:42:12;49.90;34.40
4306;DHT22;2166;49.926;8.608;2023-08-20T09:44:42;50.10;34.10
4306;DHT22;2166;49.926;8.608;2023-08-20T09:47:12;50.20;33.40
4306;DHT22;2166;49.926;8.608;2023-08-20T09:49:45;50.00;33.60
4306;DHT22;2166;49.926;8.608;2023-08-20T09:52:21;49.70;34.10
4306;DHT22;2166;49.926;8.608;2023-08-20T09:55:00;49.90;34.50
4306;DHT22;2166;49.926;8.608;2023-08-20T09:57:34;49.10;34.90
4306;DHT22;2166;49.926;8.608;2023-08-20T10:00:05;48.70;35.50
4306;DHT22;2166;49.926;8.608;2023-08-20T10:02:40;48.90;36.00
4306;DHT22;2166;49.926;8.608;2023-08-20T10:05:12;49.50;35.20
4306;DHT22;2166;49.926;8.608;2023-08-20T10:07:42;50.10;34.40
4306;DHT22;2166;49.926;8.608;2023-08-20T10:10:12;50.10;34.00
4306;DHT22;2166;49.926;8.608;2023-08-20T10:12:41;50.20;34.10
4306;DHT22;2166;49.926;8.608;2023-08-20T10:15:12;49.90;33.00
4306;DHT22;2166;49.926;8.608;2023-08-20T10:17:42;50.60;32.60
4306;DHT22;2166;49.926;8.608;2023-08-20T10:20:15;50.90;32.50
4306;DHT22;2166;49.926;8.608;2023-08-20T10:22:45;51.60;32.10
4306;DHT22;2166;49.926;8.608;2023-08-20T10:25:22;51.20;32.50
4306;DHT22;2166;49.926;8.608;2023-08-20T10:27:51;51.00;32.30
4306;DHT22;2166;49.926;8.608;2023-08-20T10:30:25;50.50;32.60
4306;DHT22;2166;49.926;8.608;2023-08-20T10:32:55;50.40;32.40
4306;DHT22;2166;49.926;8.608;2023-08-20T10:35:27;50.10;31.60
4306;DHT22;2166;49.926;8.608;2023-08-20T10:38:03;50.40;31.90
4306;DHT22;2166;49.926;8.608;2023-08-20T10:40:48;51.00;32.10
4306;DHT22;2166;49.926;8.608;2023-08-20T10:43:30;50.90;32.60
4306;DHT22;2166;49.926;8.608;2023-08-20T10:46:07;51.60;32.10
4306;DHT22;2166;49.926;8.608;2023-08-20T10:48:38;51.90;31.60
4306;DHT22;2166;49.926;8.608;2023-08-20T10:51:26;51.60;31.90
4306;DHT22;2166;49.926;8.608;2023-08-20T10:54:06;50.60;32.50
4306;DHT22;2166;49.926;8.608;2023-08-20T10:56:40;49.40;33.20
4306;DHT22;2166;49.926;8.608;2023-08-20T10:59:09;48.70;33.80
4306;DHT22;2166;49.926;8.608;2023-08-20T11:01:38;48.80;33.40
4306;DHT22;2166;49.926;8.608;2023-08-20T11:04:07;49.40;32.80
4306;DHT22;2166;49.926;8.608;2023-08-20T11:06:38;50.40;32.30
4306;DHT22;2166;49.926;8.608;2023-08-20T11:09:07;50.60;31.90
4306;DHT22;2166;49.926;8.608;2023-08-20T11:11:35;50.40;32.10
4306;DHT22;2166;49.926;8.608;2023-08-20T11:14:06;51.10;31.70
4306;DHT22;2166;49.926;8.608;2023-08-20T11:16:35;51.30;31.00
4306;DHT22;2166;49.926;8.608;2023-08-20T11:19:04;50.80;31.20
4306;DHT22;2166;49.926;8.608;2023-08-20T11:21:36;50.90;32.00
4306;DHT22;2166;49.926;8.608;2023-08-20T11:24:08;51.50;30.80
4306;DHT22;2166;49.926;8.608;2023-08-20T11:26:39;51.70;30.90
4306;DHT22;2166;49.926;8.608;2023-08-20T11:29:08;52.70;30.20
4306;DHT22;2166;49.926;8.608;2023-08-20T11:31:37;53.00;29.80
4306;DHT22;2166;49.926;8.608;2023-08-20T11:34:06;52.70;29.50
4306;DHT22;2166;49.926;8.608;2023-08-20T11:36:35;52.60;30.50
4306;DHT22;2166;49.926;8.608;2023-08-20T11:39:04;52.80;29.80
4306;DHT22;2166;49.926;8.608;2023-08-20T11:41:36;53.00;29.60
4306;DHT22;2166;49.926;8.608;2023-08-20T11:44:05;53.00;29.30
4306;DHT22;2166;49.926;8.608;2023-08-20T11:46:33;53.60;29.50
4306;DHT22;2166;49.926;8.608;2023-08-20T11:49:11;53.80;29.50
4306;DHT22;2166;49.926;8.608;2023-08-20T11:51:41;53.60;29.30
4306;DHT22;2166;49.926;8.608;2023-08-20T11:54:11;53.80;29.20
4306;DHT22;2166;49.926;8.608;2023-08-20T11:56:45;54.00;28.80
4306;DHT22;2166;49.926;8.608;2023-08-20T11:59:15;53.90;28.60
4306;DHT22;2166;49.926;8.608;2023-08-20T12:01:50;53.50;28.80
4306;DHT22;2166;49.926;8.608;2023-08-20T12:04:18;53.00;28.90
4306;DHT22;2166;49.926;8.608;2023-08-20T12:07:01;52.50;29.60
4306;DHT22;2166;49.926;8.608;2023-08-20T12:09:32;52.20;29.40
4306;DHT22;2166;49.926;8.608;2023-08-20T12:12:06;51.70;29.80
4306;DHT22;2166;49.926;8.608;2023-08-20T12:14:35;52.30;29.70
4306;DHT22;2166;49.926;8.608;2023-08-20T12:17:04;52.70;29.60
4306;DHT22;2166;49.926;8.608;2023-08-20T12:19:32;53.30;28.80
4306;DHT22;2166;49.926;8.608;2023-08-20T12:22:01;53.40;28.40
4306;DHT22;2166;49.926;8.608;2023-08-20T12:24:29;53.20;28.70
4306;DHT22;2166;49.926;8.608;2023-08-20T12:26:57;53.00;29.10
4306;DHT22;2166;49.926;8.608;2023-08-20T12:29:28;53.30;28.80
4306;DHT22;2166;49.926;8.608;2023-08-20T12:31:56;53.70;28.70
4306;DHT22;2166;49.926;8.608;2023-08-20T12:34:25;53.90;29.00
4306;DHT22;2166;49.926;8.608;2023-08-20T12:36:56;54.30;28.50
4306;DHT22;2166;49.926;8.608;2023-08-20T12:39:25;54.40;28.70
4306;DHT22;2166;49.926;8.608;2023-08-20T12:41:55;53.80;29.00
4306;DHT22;2166;49.926;8.608;2023-08-20T12:44:24;53.30;29.40
4306;DHT22;2166;49.926;8.608;2023-08-20T12:46:55;52.80;29.20
4306;DHT22;2166;49.926;8.608;2023-08-20T12:49:23;52.70;29.60
4306;DHT22;2166;49.926;8.608;2023-08-20T12:51:52;52.90;29.60
4306;DHT22;2166;49.926;8.608;2023-08-20T12:54:20;53.10;29.40
4306;DHT22;2166;49.926;8.608;2023-08-20T12:56:48;52.50;29.90
4306;DHT22;2166;49.926;8.608;2023-08-20T12:59:17;51.80;30.40
4306;DHT22;2166;49.926;8.608;2023-08-20T13:01:46;51.70;30.80
4306;DHT22;2166;49.926;8.608;2023-08-20T13:04:17;52.10;30.30
4306;DHT22;2166;49.926;8.608;2023-08-20T13:06:46;52.40;29.40
4306;DHT22;2166;49.926;8.608;2023-08-20T13:09:15;51.90;30.10
4306;DHT22;2166;49.926;8.608;2023-08-20T13:11:45;51.80;30.20
4306;DHT22;2166;49.926;8.608;2023-08-20T13:14:16;51.60;29.70
4306;DHT22;2166;49.926;8.608;2023-08-20T13:16:45;51.40;29.60
4306;DHT22;2166;49.926;8.608;2023-08-20T13:19:16;51.10;29.90
4306;DHT22;2166;49.926;8.608;2023-08-20T13:21:44;51.00;29.60
4306;DHT22;2166;49.926;8.608;2023-08-20T13:24:12;51.30;29.20
4306;DHT22;2166;49.926;8.608;2023-08-20T13:26:41;51.20;29.10
4306;DHT22;2166;49.926;8.608;2023-08-20T13:29:09;50.70;29.50
4306;DHT22;2166;49.926;8.608;2023-08-20T13:31:37;50.00;29.90
4306;DHT22;2166;49.926;8.608;2023-08-20T13:34:06;49.50;30.70
4306;DHT22;2166;49.926;8.608;2023-08-20T13:36:36;49.00;31.30
4306;DHT22;2166;49.926;8.608;2023-08-20T13:39:05;48.80;31.40
4306;DHT22;2166;49.926;8.608;2023-08-20T13:41:34;49.10;31.00
4306;DHT22;2166;49.926;8.608;2023-08-20T13:44:03;49.10;31.10
4306;DHT22;2166;49.926;8.608;2023-08-20T13:46:32;49.60;30.70
4306;DHT22;2166;49.926;8.608;2023-08-20T13:49:00;50.00;30.50
4306;DHT22;2166;49.926;8.608;2023-08-20T13:51:30;50.00;31.20
4306;DHT22;2166;49.926;8.608;2023-08-20T13:54:00;49.90;31.10
4306;DHT22;2166;49.926;8.608;2023-08-20T13:56:28;50.00;30.60
4306;DHT22;2166;49.926;8.608;2023-08-20T13:58:57;49.70;30.70
4306;DHT22;2166;49.926;8.608;2023-08-20T14:01:27;49.60;30.80
4306;DHT22;2166;49.926;8.608;2023-08-20T14:03:57;49.20;31.40
4306;DHT22;2166;49.926;8.608;2023-08-20T14:06:27;49.10;31.00
4306;DHT22;2166;49.926;8.608;2023-08-20T14:08:56;49.20;31.20
4306;DHT22;2166;49.926;8.608;2023-08-20T14:11:26;49.10;31.90
4306;DHT22;2166;49.926;8.608;2023-08-20T14:13:54;49.10;31.60
4306;DHT22;2166;49.926;8.608;2023-08-20T14:16:23;49.00;31.50
4306;DHT22;2166;49.926;8.608;2023-08-20T14:18:52;49.20;31.50
4306;DHT22;2166;49.926;8.608;2023-08-20T14:21:20;49.40;31.50
4306;DHT22;2166;49.926;8.608;2023-08-20T14:23:48;49.40;31.30
4306;DHT22;2166;49.926;8.608;2023-08-20T14:26:19;49.70;30.90
4306;DHT22;2166;49.926;8.608;2023-08-20T14:28:49;49.60;31.50
4306;DHT22;2166;49.926;8.608;2023-08-20T14:31:17;49.60;30.50
4306;DHT22;2166;49.926;8.608;2023-08-20T14:33:46;49.50;31.30
4306;DHT22;2166;49.926;8.608;2023-08-20T14:36:15;49.40;31.20
4306;DHT22;2166;49.926;8.608;2023-08-20T14:38:45;49.60;30.80
4306;DHT22;2166;49.926;8.608;2023-08-20T14:41:13;49.50;30.60
4306;DHT22;2166;49.926;8.608;2023-08-20T14:43:41;49.60;30.90
4306;DHT22;2166;49.926;8.608;2023-08-20T14:46:11;49.40;30.70
4306;DHT22;2166;49.926;8.608;2023-08-20T14:48:40;49.30;30.80
4306;DHT22;2166;49.926;8.608;2023-08-20T14:51:10;49.20;30.70
4306;DHT22;2166;49.926;8.608;2023-08-20T14:53:38;49.00;31.30
4306;DHT22;2166;49.926;8.608;2023-08-20T14:56:06;48.50;31.20
4306;DHT22;2166;49.926;8.608;2023-08-20T14:58:35;47.90;31.80
4306;DHT22;2166;49.926;8.608;2023-08-20T15:01:03;46.80;32.30
4306;DHT22;2166;49.926;8.608;2023-08-20T15:03:34;46.40;33.20
4306;DHT22;2166;49.926;8.608;2023-08-20T15:06:06;45.80;33.50
4306;DHT22;2166;49.926;8.608;2023-08-20T15:08:34;45.60;34.00
4306;DHT22;2166;49.926;8.608;2023-08-20T15:11:04;45.80;33.70
4306;DHT22;2166;49.926;8.608;2023-08-20T15:13:33;45.50;34.00
4306;DHT22;2166;49.926;8.608;2023-08-20T15:16:01;45.50;33.90
4306;DHT22;2166;49.926;8.608;2023-08-20T15:18:30;44.90;34.40
4306;DHT22;2166;49.926;8.608;2023-08-20T15:21:00;44.80;34.10
4306;DHT22;2166;49.926;8.608;2023-08-20T15:23:30;45.00;34.20
4306;DHT22;2166;49.926;8.608;2023-08-20T15:25:58;44.70;34.40
4306;DHT22;2166;49.926;8.608;2023-08-20T15:28:27;44.40;34.30
4306;DHT22;2166;49.926;8.608;2023-08-20T15:30:57;44.20;34.80
4306;DHT22;2166;49.926;8.608;2023-08-20T15:33:26;44.00;34.50
4306;DHT22;2166;49.926;8.608;2023-08-20T15:35:57;43.80;35.50
4306;DHT22;2166;49.926;8.608;2023-08-20T15:38:28;43.60;35.40
4306;DHT22;2166;49.926;8.608;2023-08-20T15:40:57;43.40;35.40
4306;DHT22;2166;49.926;8.608;2023-08-20T15:43:26;43.20;35.80
4306;DHT22;2166;49.926;8.608;2023-08-20T15:45:54;42.80;36.20
4306;DHT22;2166;49.926;8.608;2023-08-20T15:48:23;42.40;37.20
4306;DHT22;2166;49.926;8.608;2023-08-20T15:50:52;42.30;37.30
4306;DHT22;2166;49.926;8.608;2023-08-20T15:53:20;42.30;37.10
4306;DHT22;2166;49.926;8.608;2023-08-20T15:55:50;42.10;37.70
4306;DHT22;2166;49.926;8.608;2023-08-20T15:58:19;42.20;37.70
4306;DHT22;2166;49.926;8.608;2023-08-20T16:00:48;42.20;37.20
4306;DHT22;2166;49.926;8.608;2023-08-20T16:03:17;42.40;36.90
4306;DHT22;2166;49.926;8.608;2023-08-20T16:05:46;42.60;36.90
4306;DHT22;2166;49.926;8.608;2023-08-20T16:08:14;42.80;36.90
4306;DHT22;2166;49.926;8.608;2023-08-20T16:10:43;42.90;36.30
4306;DHT22;2166;49.926;8.608;2023-08-20T16:13:13;43.20;36.40
4306;DHT22;2166;49.926;8.608;2023-08-20T16:15:41;43.20;36.40
4306;DHT22;2166;49.926;8.608;2023-08-20T16:18:10;42.60;37.00